Francos Classic OLR - Loft fly

Station: Loft Fly - T Race

Distance: 1 Miles

Release: 08-Jul-2024 11:00

Weather Release:    Arrival:

Wind at Release:     Wind at Arrival:

Temp at Release: °    Temp at Arrival: °

Lofts: 148

Birds: 621

Clocked: 610

Good Luck to Everyone!
Drops Pos Breeder Pigeon Name Color Sex Team Ent Arrival Speed To Win Elg PdBrnzSilverGold
1 LFL APRIL LOFT - CA 0009-AU24-APRI BC H 0 1 11:50:29.57 34.8564 00:00:00 Yes
2 Rayas Loft - CA 0014-AU24-Raya BB H 0 1 11:51:39.56 34.0694 00:01:10 Yes
3 Mendoza Lofts - CA 1405-AU24-WSJ BB H 0 1 11:51:51.82 33.9351 00:01:22 Yes
4 Bravo Loft - FL 0109-AU24-ABRA SPRINGKAAN-LUCKY 57 BB H 0 1 11:52:00.30 33.8429 00:01:31 Yes
5 Mendoza Loft - CA 1509-AU24-WSJ 🦅🦅🦅🦅🦅 BB H 0 1 11:52:07.02 33.7702 00:01:37 Yes
6 Andres Zamora - NV 0031-AU24-ZAMO BC H 0 1 11:52:33.18 33.4900 00:02:04 Yes
7 Carson Flyers - CA 0229-AU24-CAPI BC H 0 1 11:52:38.48 33.4338 00:02:09 Yes
8 1 R P S Loft - CA 0397-AU24-SFR BB H 0 1 11:52:52.53 33.2857 00:02:23 Yes
9 Littlerock pigeons - CA 0148-AU24-LPC BWF H 0 1 11:53:12.38 33.0788 00:02:43 Yes
10 Avalos Syndicate - CA 46753-AU24-JEDD BB H 0 1 11:53:13.24 33.0699 00:02:44 Yes
11 Mendoza Loft - CA 1535-AU24-WSJ 🦅🦅🦅🦅🦅 BB H 0 2 11:53:13.62 33.0659 00:02:44 Yes
12 Wjd - CA 0031-AU24-JLY BB H 0 1 11:53:45.33 32.7408 00:03:16 Yes
13 Flying D Loft - TX 2330-AU24-FLYD BB H 0 1 11:54:05.72 32.5352 00:03:36 Yes
14 E-M Amigos Loft - 1414-AU24-OCC BB H 0 1 11:54:23.92 32.3537 00:03:54 Yes
15 Hayloft - CA 4146-AU24-GSF BC H 0 1 11:54:24.52 32.3478 00:03:55 Yes
16 Ganzo Loft - CA 77801-MX24-FMC BCSP H 0 1 11:54:30.87 32.2850 00:04:01 Yes
17 Abraham Ramirez - CA 0036-AU24-ABRA ✅LONGHORN CHAMP 36✅ BB H 0 1 11:58:39.37 30.0054 00:08:10 Yes
18 Caliber - CA 0009-AU24-CALI DCSP H 0 1 11:58:39.50 30.0043 00:08:10 Yes
19 Salvador Gomez - CA 0414-AU24-BPRC BC H 0 1 11:58:44.59 29.9609 00:08:15 Yes
20 Vallarta Loft - CA 15349-AU24-JEDD BB H 0 1 11:58:45.05 29.9570 00:08:15 Yes
21 Abraham Ramirez - CA 0012-AU24-ABRA ✅ESPRESSO 12✅ BBSP H 0 2 11:58:47.67 29.9348 00:08:18 Yes
22 EAST SIDE BOYS - CA 40751-AU24-MAN BCH H 0 1 11:59:06.39 29.7768 00:08:37 Yes
23 Guinguiry and Rooster 1 - CA 33420-AU24-JEDD BB H 0 1 11:59:40.20 29.4956 00:09:11 Yes
24 Bieche Lofts - CA 4066-AU24-BIEC BB H 0 1 11:59:52.23 29.3968 00:09:23 Yes
25 S & S - CA 0314-AU24-SS BC H 0 1 12:00:00.86 29.3263 00:09:31 Yes
26 Alfonso & Ron Loft - 0741-AU24-MTZ BB H 0 1 12:00:25.46 29.1273 00:09:56 Yes
27 Guinguiry and Rooster 1 - CA 33421-AU24-JEDD BBWF H 0 2 12:00:40.64 29.0059 00:10:11 Yes
28 B T W Loft - CA 0305-AU24-VIP BBWF H 0 1 12:03:28.65 27.7264 00:12:59 Yes
29 Stony Ford Loft - CA 1651-AU24-MTZ BB H 0 1 12:04:30.17 27.2856 00:14:01 Yes
30 Hayloft - CA 4152-AU24-GSF BB H 0 2 12:04:32.41 27.2698 00:14:03 Yes
31 De La O / Orozco Loft - CA 4254-AU24-COOK BB H 0 1 12:04:41.78 27.2040 00:14:12 Yes
32 Caliber - CA 0003-AU24-CALI BC H 0 2 12:05:00.51 27.0734 00:14:31 Yes
33 Alegre Loft - CA 35401-AU24-JEDD PISA H 0 1 12:05:05.36 27.0398 00:14:36 Yes
34 Alopez Loft - CA 0848-AU24-CVC SPLA H 0 1 12:05:35.28 26.8342 00:15:06 Yes
35 Cade Loft - CA 4695-AU24-AA BB H 0 1 12:06:17.49 26.5494 00:15:48 Yes
36 Chavelita Loft - CA 0190-AU24-MEZC SPLA H 0 1 12:06:38.72 26.4085 00:16:09 Yes
37 Vallarta Loft - CA 15353-AU24-JEDD BCH H 0 2 12:07:08.16 26.2154 00:16:39 Yes
38 Bieche Lofts - CA 4050-AU24-BIEC BB H 0 2 12:07:15.89 26.1652 00:16:46 Yes
39 Maharlika Loft - CA 13715-AU24-JEDD BC H 0 1 12:07:32.38 26.0588 00:17:03 Yes
40 Zapopan Loft - CA 12655-AU24-JEDD BB H 0 1 12:07:48.69 25.9543 00:17:19 Yes
41 Wjd - CA 0016-AU24-JLY BBWF H 0 2 12:08:27.01 25.7121 00:17:57 Yes
42 BARRERA FAMILY LOFT - CA 0258-AU24-JBL BCWF H 0 1 12:08:41.63 25.6209 00:18:12 Yes
43 DB LOFT - CA 5332-AU24-JEDD SOLID GOLD BCWF H 0 1 12:09:07.18 25.4631 00:18:38 Yes
44 Littlerock pigeons - CA 0911-AU24-LPC BCH H 0 2 12:09:30.74 25.3192 00:19:01 Yes
45 HP Loft - CA 30330-AU24-JEDD BB H 0 1 12:10:10.44 25.0805 00:19:41 Yes
46 Ricardo Perez - CA 45580-AU24-JEDD BB H 0 1 12:10:49.86 24.8479 00:20:20 Yes
47 Hayloft - CA 4165-AU24-GSF BB H 0 3 12:11:25.24 24.6427 00:20:56 Yes
48 Sal Perez - CA 0018-AU24-SFR BCWF H 0 1 12:11:31.67 24.6058 00:21:02 Yes
- !-AU24--1406-!-AE1 12:12:09.12 24.3929
49 Pantoja & Salazar - CA 0011-AU24-EMMA BB H 0 1 12:12:09.74 24.3895 00:21:40 Yes
50 Silicon Valley Syndicate - CA 24036-AU24-SVS BC H 0 1 12:12:30.12 24.2752 00:22:01 Yes
51 Pidg-Inn - AL 5785-AU24-VITA BB H 0 1 12:13:16.50 24.0191 00:22:47 Yes
52 B T W Loft - CA 0304-AU24-VIP BBWF H 0 2 12:13:18.40 24.0087 00:22:49 Yes
53 Stony Ford Loft - CA 1663-AU24-MTZ BB H 0 2 12:13:40.81 23.8870 00:23:11 Yes
54 Littlerock pigeons - CA 0902-AU24-LPC BB H 0 3 12:13:59.94 23.7841 00:23:30 Yes
55 Romero's Loft - CA 3722-AU24-GSF BBWF H 0 1 12:14:25.54 23.6478 00:23:56 Yes
56 Littlerock pigeons - CA 56422-AU24-ARPU GRZL H 0 4 12:14:27.93 23.6351 00:23:58 Yes
57 Avalos Loft - CA 46754-AU24-JEDD BB H 0 1 12:14:39.56 23.5737 00:24:10 Yes
58 Mendoza Lofts - CA 1407-AU24-WSJ BB H 0 2 12:14:49.39 23.5221 00:24:20 Yes
59 Guinguiry and Rooster 1 - CA 0430-AU24-CVC BB H 0 3 12:15:05.63 23.4373 00:24:36 Yes
60 Van Gruen Loft - CA 0408-AU24-SD BB H 0 1 12:15:37.41 23.2732 00:25:08 Yes
61 Jesus Torres Loft - CA 0860-AU24-WSJ BB H 0 1 12:15:41.39 23.2528 00:25:12 Yes
62 Gomez Loft - CA 53001-AU24-ARPU BB H 0 1 12:16:46.75 22.9229 00:26:17 Yes
63 Abraham Ramirez - CA 0034-AU24-ABRA ✅COPPER LEGEND✅ BBWF H 0 3 12:16:59.46 22.8598 00:26:30 Yes
64 Caliber - CA 0097-AU24-CALI BCWF H 0 3 12:17:23.76 22.7402 00:26:54 Yes
65 KB - CA 24065-AU24-KB BB H 0 1 12:17:31.65 22.7016 00:27:02 Yes
66 AX Pigeons - CA 13723-AU24-JEDD BC H 0 1 12:17:48.77 22.6184 00:27:19 Yes
67 Western Loft - CA 5496-AU24-VITA BB H 0 1 12:18:00.73 22.5606 00:27:31 Yes
68 Osty Loft - CA 0293-AU24-OSTY 🦉OSTY FAMILY VI💖 BB H 0 1 12:18:28.17 22.4291 00:27:59 Yes
69 HP Loft - CA 30335-AU24-JEDD BC H 0 2 12:18:32.20 22.4099 00:28:03 Yes
70 Salvador Gomez - CA 0416-AU24-BPRC BC H 0 2 12:18:48.69 22.3318 00:28:19 Yes
71 HP Loft - CA 30332-AU24-JEDD BB H 0 3 12:19:42.85 22.0789 00:29:13 Yes
72 Caliber - CA 0020-AU24-CALI DC H 0 4 12:20:00.34 21.9984 00:29:31 Yes
73 SKYE LOFT - CA 0056-AU24-SKYE BB H 0 1 12:20:09.18 21.9580 00:29:40 Yes
74 Flying D Loft - TX 2277-AU24-FLYD DCH H 0 2 12:20:43.34 21.8031 00:30:14 Yes
75 Easy725 - CA 24802-AU24-JEDD Champion BC H 0 1 12:21:00.63 21.7256 00:30:31 Yes
76 Black Starr Loft - CA 30953-AU24-JEDD BSL 13 BWF H 0 1 12:21:12.21 21.6739 00:30:43 Yes
77 Fred Belus Loft - CA 0346-AU24-BPRC BB H 0 1 12:21:37.81 21.5607 00:31:08 Yes
78 Chilango - CA 3621-AT24-ARPU BBWF H 0 1 12:22:06.41 21.4355 00:31:37 Yes
79 Ee Martín - CA 0027-AU24-EMAR BB H 0 1 12:22:18.19 21.3844 00:31:49 Yes
80 Chavelita Loft - CA 0194-AU24-MEZC BB H 0 2 12:22:47.59 21.2578 00:32:18 Yes
81 Randolph Racers - AL 36355-AU24-FOYS Alexa BC H 0 1 12:23:23.80 21.1040 00:32:54 Yes
82 Guinguiry and Rooster 1 - CA 0419-AU24-CVC BB H 0 4 12:24:01.44 20.9464 00:33:32 Yes
83 ORTEGAS LOFT - CA 3220-AU24-VITA BB H 0 1 12:24:19.22 20.8728 00:33:50 Yes
84 El Tepetate Loft - CA 0606-AU24-BPRC BBWF H 0 1 12:24:59.45 20.7081 00:34:30 Yes
85 Abraham Ramirez - CA 0022-AU24-ABRA ✅HARD HIT 22✅ CHO H 0 4 12:25:14.73 20.6463 00:34:45 Yes
86 Avalos Team - CA 5107-AU24-TULE BBWF H 0 1 12:26:06.57 20.4391 00:35:37 Yes
87 Caliber - CA 0068-AU24-CALI DCWF H 0 5 12:26:46.02 20.2842 00:36:16 Yes
88 Stony Ford Loft - CA 0100-AU24-MEZC BCH H 0 3 12:26:55.47 20.2475 00:36:26 Yes
89 Ggpp Loft - CA 0039-AU24-GGPP BC H 0 1 12:26:57.87 20.2381 00:36:28 Yes
90 Mendoza Lofts - CA 1421-AU24-WSJ BB H 0 3 12:27:03.99 20.2144 00:36:34 Yes
91 Black Starr Loft - CA 30955-AU24-JEDD BSL 15 BB H 0 2 12:27:08.58 20.1967 00:36:39 Yes
92 Littlerock pigeons - CA 56421-AU24-ARPU GRZL H 0 5 12:27:42.13 20.0679 00:37:13 Yes
93 VMBY Loft - CA 0445-AU24-VMBY DCH H 0 1 12:28:56.20 19.7894 00:38:27 Yes
94 Capistrano Classic - FL 0248-AU24-CAPI 🌪️🌪️🌪️🌪 BB H 0 1 12:29:16.22 19.7154 00:38:47 Yes
95 Aly Loft - CA 29730-AU24-JEDD BBPA H 0 1 12:29:51.67 19.5858 00:39:22 Yes
96 Savers Family Loft - CA 0480-AU24-BPRC BCH H 0 1 12:29:53.22 19.5801 00:39:24 Yes
97 Andres Zamora - NV 0021-AU24-ZAMO DC H 0 2 12:30:05.18 19.5368 00:39:36 Yes
98 Dino D'ercole - CA 1006-AU24-SFR BB H 0 1 12:30:16.49 19.4960 00:39:47 Yes
99 Libre - CA 1413-AU24-FVC DCH H 0 1 12:30:23.30 19.4715 00:39:54 Yes

There are 610 bird records

Note: These Race Results are unofficial and subject to change until verified by the Race Committee and declared final.

 

windy